createdAt,value
2018-07-08T00:02:16.498Z,76.48
2018-07-08T00:04:45.307Z,76.39
2018-07-08T00:07:14.447Z,76.09
2018-07-08T00:09:43.249Z,75.15
2018-07-08T00:12:12.081Z,75.33
2018-07-08T00:14:41.258Z,75.77
2018-07-08T00:17:10.083Z,75.66
2018-07-08T00:19:38.907Z,76.09
2018-07-08T00:22:08.126Z,75.78
2018-07-08T00:24:37.050Z,75.46
2018-07-08T00:27:05.943Z,75.98
2018-07-08T00:29:34.738Z,75.47
2018-07-08T00:32:03.549Z,75.83
2018-07-08T00:34:32.338Z,75.49
2018-07-08T00:37:01.195Z,75.20
2018-07-08T00:39:29.962Z,74.87
2018-07-08T00:41:58.722Z,75.11
2018-07-08T00:44:27.898Z,75.01
2018-07-08T00:46:56.709Z,75.50
2018-07-08T00:49:26.035Z,75.37
2018-07-08T00:51:54.829Z,74.98
2018-07-08T00:54:23.594Z,74.45
2018-07-08T00:56:52.377Z,74.84
2018-07-08T00:59:21.179Z,74.60
2018-07-08T01:01:49.952Z,75.69
2018-07-08T01:04:18.768Z,75.63
2018-07-08T01:06:47.616Z,75.45
2018-07-08T01:09:16.534Z,75.24
2018-07-08T01:11:45.645Z,74.67
2018-07-08T01:14:14.436Z,74.72
2018-07-08T01:16:43.292Z,74.99
2018-07-08T01:19:12.481Z,74.26
2018-07-08T01:21:41.249Z,74.38
2018-07-08T01:24:10.245Z,74.26
2018-07-08T01:26:39.475Z,73.55
2018-07-08T01:29:08.327Z,73.69
2018-07-08T01:31:37.122Z,73.98
2018-07-08T01:34:05.975Z,73.76
2018-07-08T01:36:34.994Z,73.31
2018-07-08T01:39:04.213Z,73.00
2018-07-08T01:41:32.986Z,73.64
2018-07-08T01:44:01.755Z,73.76
2018-07-08T01:46:30.501Z,73.05
2018-07-08T01:48:59.295Z,73.54
2018-07-08T01:51:28.082Z,73.44
2018-07-08T01:53:56.962Z,73.92
2018-07-08T01:56:25.755Z,72.76
2018-07-08T01:58:55.085Z,73.14
2018-07-08T02:01:23.879Z,73.92
2018-07-08T02:03:53.102Z,73.49
2018-07-08T02:06:21.938Z,74.50
2018-07-08T02:08:50.704Z,73.73
2018-07-08T02:11:20.189Z,73.54
2018-07-08T02:13:49.021Z,73.75
2018-07-08T02:16:18.192Z,73.82
2018-07-08T02:18:47.394Z,74.36
2018-07-08T02:21:16.603Z,74.26
2018-07-08T02:23:45.839Z,73.52
2018-07-08T02:26:14.618Z,74.03
2018-07-08T02:28:43.511Z,73.74
2018-07-08T02:31:12.312Z,72.67
2018-07-08T02:33:41.114Z,72.06
2018-07-08T02:36:09.906Z,73.55
2018-07-08T02:38:38.754Z,73.55
2018-07-08T02:41:07.597Z,73.25
2018-07-08T02:43:36.456Z,73.28
2018-07-08T02:46:05.356Z,73.76
2018-07-08T02:48:34.171Z,72.78
2018-07-08T02:51:02.981Z,73.94
2018-07-08T02:53:31.758Z,73.50
2018-07-08T02:56:00.520Z,73.67
2018-07-08T02:58:29.281Z,73.35
2018-07-08T03:00:58.057Z,73.06
2018-07-08T03:03:26.811Z,73.17
2018-07-08T03:05:55.577Z,73.24
2018-07-08T03:08:24.750Z,72.83
2018-07-08T03:10:53.558Z,73.39
2018-07-08T03:13:22.352Z,73.21
2018-07-08T03:15:51.122Z,72.35
2018-07-08T03:18:19.964Z,72.75
2018-07-08T03:20:48.747Z,72.85
2018-07-08T03:23:17.534Z,72.35
2018-07-08T03:25:46.327Z,72.77
2018-07-08T03:28:15.161Z,72.91
2018-07-08T03:30:43.942Z,72.03
2018-07-08T03:33:12.733Z,72.20
2018-07-08T03:35:41.504Z,71.55
2018-07-08T03:38:10.287Z,71.19
2018-07-08T03:40:39.101Z,71.97
2018-07-08T03:43:07.945Z,72.09
2018-07-08T03:45:36.731Z,71.67
2018-07-08T03:48:05.556Z,71.67
2018-07-08T03:50:34.337Z,71.55
2018-07-08T03:53:03.146Z,70.40
2018-07-08T03:55:31.904Z,70.41
2018-07-08T03:58:01.099Z,70.91
2018-07-08T04:00:30.188Z,69.77
2018-07-08T04:02:58.926Z,71.05
2018-07-08T04:05:27.705Z,69.85
2018-07-08T04:07:56.478Z,70.09
2018-07-08T04:10:25.612Z,70.76
2018-07-08T04:12:54.433Z,70.16
2018-07-08T04:15:23.242Z,70.86
2018-07-08T04:18:09.048Z,71.40
2018-07-08T04:20:39.129Z,70.66
2018-07-08T04:23:08.126Z,70.72
2018-07-08T04:25:36.878Z,70.85
2018-07-08T04:28:05.706Z,71.20
2018-07-08T04:30:34.480Z,70.85
2018-07-08T04:33:03.265Z,70.35
2018-07-08T04:35:32.030Z,70.52
2018-07-08T04:38:00.895Z,69.42
2018-07-08T04:40:29.701Z,69.83
2018-07-08T04:42:58.498Z,69.42
2018-07-08T04:45:28.834Z,68.45
2018-07-08T04:47:57.676Z,69.03
2018-07-08T04:50:26.551Z,68.00
2018-07-08T04:52:55.329Z,68.41
2018-07-08T04:55:24.143Z,67.83
2018-07-08T04:57:52.950Z,67.97
2018-07-08T05:00:21.766Z,66.30
2018-07-08T05:02:50.614Z,66.29
2018-07-08T05:05:19.393Z,66.34
2018-07-08T05:07:48.172Z,66.04
2018-07-08T05:10:16.977Z,65.92
2018-07-08T05:12:45.774Z,66.55
2018-07-08T05:15:14.542Z,67.01
2018-07-08T05:17:43.346Z,66.03
2018-07-08T05:20:12.186Z,66.30
2018-07-08T05:22:40.920Z,66.76
2018-07-08T05:25:09.657Z,67.31
2018-07-08T05:27:38.450Z,66.43
2018-07-08T05:30:07.386Z,67.84
2018-07-08T05:32:36.263Z,67.18
2018-07-08T05:35:05.199Z,67.86
2018-07-08T05:37:34.086Z,68.50
2018-07-08T05:40:02.904Z,68.21
2018-07-08T05:42:31.678Z,68.38
2018-07-08T05:45:00.487Z,68.82
2018-07-08T05:47:32.231Z,69.03
2018-07-08T05:50:01.101Z,68.94
2018-07-08T05:52:29.878Z,68.60
2018-07-08T05:54:58.653Z,68.90
2018-07-08T05:57:27.417Z,68.16
2018-07-08T05:59:56.181Z,68.10
2018-07-08T06:02:24.942Z,68.47
2018-07-08T06:04:53.707Z,67.16
2018-07-08T06:07:22.582Z,67.15
2018-07-08T06:09:51.374Z,66.56
2018-07-08T06:12:20.131Z,66.65
2018-07-08T06:14:48.930Z,66.92
2018-07-08T06:17:17.858Z,67.05
2018-07-08T06:19:46.715Z,66.72
2018-07-08T06:22:15.441Z,67.35
2018-07-08T06:24:44.240Z,67.36
2018-07-08T06:27:13.026Z,66.71
2018-07-08T06:29:41.797Z,67.52
2018-07-08T06:32:10.587Z,67.40
2018-07-08T06:34:39.357Z,67.18
2018-07-08T06:37:08.169Z,67.82
2018-07-08T06:39:36.909Z,67.82
2018-07-08T06:42:05.729Z,67.55
2018-07-08T06:44:34.585Z,67.94
2018-07-08T06:47:03.364Z,67.55
2018-07-08T06:49:32.233Z,67.75
2018-07-08T06:52:01.455Z,67.94
2018-07-08T06:54:30.385Z,67.75
2018-07-08T06:56:59.199Z,67.17
2018-07-08T06:59:28.087Z,67.27
2018-07-08T07:01:56.859Z,66.84
2018-07-08T07:04:25.640Z,67.64
2018-07-08T07:06:54.468Z,67.74
2018-07-08T07:09:23.265Z,68.16
2018-07-08T07:11:52.084Z,67.40
2018-07-08T07:14:20.954Z,68.00
2018-07-08T07:16:49.741Z,66.69
2018-07-08T07:19:18.639Z,67.11
2018-07-08T07:21:47.466Z,67.91
2018-07-08T07:24:16.454Z,66.82
2018-07-08T07:26:45.245Z,66.97
2018-07-08T07:29:14.112Z,66.72
2018-07-08T07:31:42.999Z,65.52
2018-07-08T07:34:12.824Z,64.56
2018-07-08T07:36:41.745Z,64.96
2018-07-08T07:39:10.797Z,63.75
2018-07-08T07:41:39.584Z,64.73
2018-07-08T07:44:08.387Z,63.33
2018-07-08T07:46:37.325Z,63.84
2018-07-08T07:49:06.474Z,64.18
2018-07-08T07:51:35.266Z,63.24
2018-07-08T07:54:04.027Z,63.61
2018-07-08T07:56:32.816Z,63.30
2018-07-08T07:59:01.656Z,63.76
2018-07-08T08:01:30.577Z,64.55
2018-07-08T08:03:59.444Z,64.58
2018-07-08T08:06:28.226Z,62.63
2018-07-08T08:08:57.014Z,62.71
2018-07-08T08:11:25.810Z,63.46
2018-07-08T08:14:06.361Z,62.54
2018-07-08T08:16:35.141Z,62.91
2018-07-08T08:19:04.359Z,64.35
2018-07-08T08:21:33.164Z,63.77
2018-07-08T08:24:01.936Z,65.55
2018-07-08T08:26:30.961Z,64.95
2018-07-08T08:29:00.800Z,64.50
2018-07-08T08:31:29.567Z,65.18
2018-07-08T08:35:06.982Z,65.04
2018-07-08T08:37:37.879Z,65.70
2018-07-08T08:40:07.282Z,65.05
2018-07-08T08:42:36.133Z,66.85
2018-07-08T08:45:05.551Z,65.83
2018-07-08T08:47:34.581Z,67.40
2018-07-08T08:50:03.499Z,71.50
2018-07-08T08:52:32.320Z,70.08
2018-07-08T08:55:01.464Z,71.09
2018-07-08T08:57:30.218Z,71.39
2018-07-08T08:59:59.050Z,71.42
2018-07-08T09:02:27.863Z,69.96
2018-07-08T09:04:56.675Z,70.16
2018-07-08T09:07:25.451Z,70.06
2018-07-08T09:09:54.222Z,71.96
2018-07-08T09:12:22.993Z,72.28
2018-07-08T09:14:51.760Z,71.91
2018-07-08T09:17:20.571Z,72.50
2018-07-08T09:19:49.525Z,73.18
2018-07-08T09:22:18.334Z,77.56
2018-07-08T09:24:47.807Z,80.27
2018-07-08T09:27:16.988Z,82.50
2018-07-08T09:29:45.781Z,83.15
2018-07-08T09:32:14.585Z,84.44
2018-07-08T09:34:43.343Z,84.24
2018-07-08T09:37:12.150Z,84.22
2018-07-08T09:39:40.939Z,84.93
2018-07-08T09:42:09.713Z,84.16
2018-07-08T09:44:38.858Z,83.25
2018-07-08T09:47:07.625Z,83.08
2018-07-08T09:49:36.425Z,81.43
2018-07-08T09:52:05.175Z,79.88
2018-07-08T09:54:34.007Z,78.81
2018-07-08T09:57:02.804Z,78.24
2018-07-08T09:59:31.718Z,77.86
2018-07-08T10:02:00.515Z,76.53
2018-07-08T10:04:29.464Z,76.85
2018-07-08T10:06:58.397Z,75.49
2018-07-08T10:09:27.391Z,75.89
2018-07-08T10:11:56.178Z,74.67
2018-07-08T10:14:25.394Z,73.88
2018-07-08T10:16:54.171Z,73.53
2018-07-08T10:19:23.025Z,73.81
2018-07-08T10:21:52.003Z,74.24
2018-07-08T10:24:20.811Z,73.42
2018-07-08T10:27:12.287Z,72.37
2018-07-08T10:29:41.124Z,71.84
2018-07-08T10:32:09.898Z,71.24
2018-07-08T10:34:38.730Z,69.98
2018-07-08T10:37:07.730Z,70.82
2018-07-08T10:39:36.493Z,70.65
2018-07-08T10:42:05.266Z,70.73
2018-07-08T10:44:34.053Z,70.01
2018-07-08T10:47:02.979Z,68.81
2018-07-08T10:49:31.811Z,67.60
2018-07-08T10:52:00.620Z,68.69
2018-07-08T10:54:29.409Z,68.15
2018-07-08T10:56:58.220Z,68.91
2018-07-08T10:59:27.295Z,67.79
2018-07-08T11:01:56.231Z,67.09
2018-07-08T11:04:25.065Z,67.41
2018-07-08T11:06:54.242Z,66.70
2018-07-08T11:09:23.099Z,66.01
2018-07-08T11:11:52.366Z,65.05
2018-07-08T11:14:21.125Z,64.79
2018-07-08T11:16:49.950Z,65.03
2018-07-08T11:19:18.715Z,65.49
2018-07-08T11:21:47.466Z,64.84
2018-07-08T11:24:16.270Z,65.26
2018-07-08T11:26:45.141Z,65.33
2018-07-08T11:29:13.955Z,64.60
2018-07-08T11:31:42.716Z,64.83
2018-07-08T11:34:11.519Z,64.17
2018-07-08T11:36:40.281Z,64.30
2018-07-08T11:39:09.045Z,63.90
2018-07-08T11:41:37.843Z,64.15
2018-07-08T11:44:07.779Z,63.22
2018-07-08T11:46:36.590Z,64.06
2018-07-08T11:49:05.463Z,63.96
2018-07-08T11:51:34.269Z,62.61
2018-07-08T11:54:03.065Z,62.51
2018-07-08T11:56:31.857Z,60.75
2018-07-08T11:59:00.724Z,61.73
2018-07-08T12:01:29.993Z,62.47
2018-07-08T12:03:58.828Z,62.39
2018-07-08T12:06:27.673Z,64.00
2018-07-08T12:08:57.011Z,63.80
2018-07-08T12:11:25.981Z,62.44
2018-07-08T12:13:54.970Z,61.42
2018-07-08T12:16:24.136Z,62.29
2018-07-08T12:18:52.934Z,60.49
2018-07-08T12:21:22.292Z,59.88
2018-07-08T12:23:51.838Z,60.34
2018-07-08T12:26:20.637Z,60.25
2018-07-08T12:28:49.426Z,59.05
2018-07-08T12:31:18.264Z,58.12
2018-07-08T12:33:47.027Z,57.10
2018-07-08T12:36:15.791Z,57.31
2018-07-08T12:38:44.652Z,56.82
2018-07-08T12:41:13.515Z,56.38
2018-07-08T12:43:42.401Z,55.50
2018-07-08T12:46:11.227Z,57.20
2018-07-08T12:48:40.323Z,55.84
2018-07-08T12:51:10.829Z,58.25
2018-07-08T12:53:39.653Z,57.70
2018-07-08T12:56:08.470Z,58.27
2018-07-08T12:58:37.282Z,56.77
2018-07-08T13:01:07.509Z,57.80
2018-07-08T13:03:36.360Z,57.86
2018-07-08T13:06:05.172Z,59.23
2018-07-08T13:08:34.053Z,59.34
2018-07-08T13:11:02.884Z,60.26
2018-07-08T13:13:31.774Z,60.55
2018-07-08T13:16:01.166Z,60.40
2018-07-08T13:18:29.960Z,59.68
2018-07-08T13:20:59.106Z,59.63
2018-07-08T13:23:27.979Z,59.23
2018-07-08T13:25:56.731Z,60.73
2018-07-08T13:28:25.515Z,59.24
2018-07-08T13:30:54.303Z,59.64
2018-07-08T13:33:23.434Z,59.96
2018-07-08T13:35:52.260Z,61.39
2018-07-08T13:38:21.098Z,61.59
2018-07-08T13:40:49.991Z,63.62
2018-07-08T13:43:18.908Z,68.44
2018-07-08T13:45:47.687Z,69.35
2018-07-08T13:48:16.463Z,69.42
2018-07-08T13:50:45.669Z,69.77
2018-07-08T13:53:14.442Z,70.33
2018-07-08T13:55:43.517Z,71.83
2018-07-08T13:58:12.373Z,72.15
2018-07-08T14:00:42.031Z,72.05
2018-07-08T14:03:10.864Z,72.43
2018-07-08T14:05:40.055Z,71.77
2018-07-08T14:08:09.184Z,71.90
2018-07-08T14:10:38.625Z,71.88
2018-07-08T14:13:07.727Z,71.60
2018-07-08T14:15:36.515Z,70.75
2018-07-08T14:18:05.775Z,70.81
2018-07-08T14:20:34.621Z,71.62
2018-07-08T14:23:03.659Z,70.73
2018-07-08T14:25:32.614Z,67.34
2018-07-08T14:28:01.588Z,66.02
2018-07-08T14:30:30.956Z,67.44
2018-07-08T14:32:59.820Z,66.98
2018-07-08T14:35:29.075Z,68.43
2018-07-08T14:37:57.930Z,66.96
2018-07-08T14:40:26.734Z,67.94
2018-07-08T14:42:55.550Z,68.06
2018-07-08T14:45:25.670Z,68.79
2018-07-08T14:47:54.464Z,69.76
2018-07-08T14:50:23.247Z,72.07
2018-07-08T14:52:52.246Z,71.31
2018-07-08T14:55:21.915Z,71.09
2018-07-08T14:57:50.852Z,71.00
2018-07-08T15:00:19.689Z,70.14
2018-07-08T15:02:48.451Z,70.26
2018-07-08T15:05:17.251Z,71.70
2018-07-08T15:07:46.451Z,71.71
2018-07-08T15:10:15.618Z,73.33
2018-07-08T15:12:44.476Z,74.51
2018-07-08T15:15:14.517Z,74.95
2018-07-08T15:17:43.376Z,74.09
2018-07-08T15:20:12.225Z,72.46
2018-07-08T15:22:41.417Z,72.48
2018-07-08T15:25:10.214Z,71.49
2018-07-08T15:27:39.016Z,70.84
2018-07-08T15:30:08.600Z,69.40
2018-07-08T15:32:37.398Z,67.72
2018-07-08T15:35:06.330Z,67.16
2018-07-08T15:37:35.110Z,66.84
2018-07-08T15:40:04.319Z,68.27
2018-07-08T15:42:33.522Z,68.11
2018-07-08T15:45:02.443Z,68.01
2018-07-08T15:47:31.420Z,67.62
2018-07-08T15:50:00.294Z,68.77
2018-07-08T15:52:29.208Z,66.24
2018-07-08T15:54:58.055Z,67.24
2018-07-08T15:57:26.945Z,65.25
2018-07-08T15:59:55.893Z,67.17
2018-07-08T16:02:24.694Z,68.01
2018-07-08T16:04:53.667Z,67.61
2018-07-08T16:07:22.654Z,68.18
2018-07-08T16:09:51.818Z,71.05
2018-07-08T16:12:20.787Z,71.76
2018-07-08T16:14:49.561Z,72.59
2018-07-08T16:17:18.450Z,76.74
2018-07-08T16:19:47.485Z,77.27
2018-07-08T16:22:16.431Z,77.44
2018-07-08T16:24:45.266Z,77.80
2018-07-08T16:27:14.471Z,77.71
2018-07-08T16:29:43.308Z,79.09
2018-07-08T16:32:13.047Z,78.04
2018-07-08T16:34:41.884Z,78.30
2018-07-08T16:37:10.789Z,77.25
2018-07-08T16:39:39.592Z,76.17
2018-07-08T16:42:08.480Z,76.45
2018-07-08T16:44:37.657Z,75.74
2018-07-08T16:47:06.469Z,76.75
2018-07-08T16:49:35.292Z,77.45
2018-07-08T16:52:04.736Z,78.62
2018-07-08T16:54:33.521Z,78.81
2018-07-08T16:57:02.423Z,79.74
2018-07-08T16:59:31.268Z,81.72
2018-07-08T17:02:00.476Z,82.49
2018-07-08T17:04:29.249Z,81.12
2018-07-08T17:06:58.150Z,81.56
2018-07-08T17:09:26.949Z,78.11
2018-07-08T17:11:56.720Z,79.51
2018-07-08T17:14:25.618Z,77.64
2018-07-08T17:16:54.415Z,77.22
2018-07-08T17:19:23.334Z,76.63
2018-07-08T17:21:52.223Z,76.36
2018-07-08T17:24:21.199Z,76.80
2018-07-08T17:26:50.018Z,76.20
2018-07-08T17:29:18.881Z,76.29
2018-07-08T17:31:47.772Z,76.13
2018-07-08T17:34:16.666Z,76.70
2018-07-08T17:36:46.125Z,76.41
2018-07-08T17:39:14.997Z,76.73
2018-07-08T17:41:44.262Z,77.15
2018-07-08T17:44:13.218Z,77.42
2018-07-08T17:46:42.101Z,78.16
2018-07-08T17:49:11.212Z,79.19
2018-07-08T17:51:40.063Z,80.08
2018-07-08T17:54:09.280Z,80.14
2018-07-08T17:56:38.493Z,80.04
2018-07-08T17:59:07.790Z,80.13
2018-07-08T18:01:36.637Z,81.08
2018-07-08T18:04:05.771Z,79.65
2018-07-08T18:06:34.542Z,79.55
2018-07-08T18:09:05.117Z,80.53
2018-07-08T18:11:33.993Z,79.39
2018-07-08T18:14:03.876Z,78.13
2018-07-08T18:16:33.067Z,78.67
2018-07-08T18:19:01.940Z,78.98
2018-07-08T18:21:30.792Z,78.65
2018-07-08T18:24:00.516Z,80.11
2018-07-08T18:26:29.401Z,80.43
2018-07-08T18:28:58.586Z,80.03
2018-07-08T18:31:27.437Z,79.74
2018-07-08T18:33:56.627Z,79.43
2018-07-08T18:36:25.450Z,79.99
2018-07-08T18:38:54.686Z,79.35
2018-07-08T18:41:23.966Z,79.92
2018-07-08T18:43:53.398Z,80.30
2018-07-08T18:46:22.255Z,79.61
2018-07-08T18:48:51.326Z,80.13
2018-07-08T18:51:20.192Z,79.80
2018-07-08T18:53:49.788Z,79.37
2018-07-08T18:56:18.657Z,79.05
2018-07-08T18:58:47.563Z,78.83
2018-07-08T19:01:16.797Z,78.46
2018-07-08T19:03:46.860Z,77.87
2018-07-08T19:06:15.712Z,77.74
2018-07-08T19:08:47.222Z,77.75
2018-07-08T19:11:16.235Z,77.57
2018-07-08T19:13:45.069Z,77.59
2018-07-08T19:16:14.838Z,77.03
2018-07-08T19:18:44.059Z,76.85
2018-07-08T19:21:12.871Z,77.03
2018-07-08T19:23:43.337Z,77.48
2018-07-08T19:26:12.189Z,77.70
2018-07-08T19:28:41.095Z,77.33
2018-07-08T19:31:09.970Z,77.21
2018-07-08T19:33:39.144Z,76.28
2018-07-08T19:36:07.974Z,76.90
2018-07-08T19:38:36.761Z,77.89
2018-07-08T19:41:05.905Z,77.80
2018-07-08T19:43:35.137Z,77.74
2018-07-08T19:46:04.016Z,77.51
2018-07-08T19:48:32.781Z,79.14
2018-07-08T19:51:01.631Z,77.24
2018-07-08T19:53:30.829Z,77.50
2018-07-08T19:56:00.334Z,77.71
2018-07-08T19:58:29.191Z,77.96
2018-07-08T20:00:58.665Z,79.09
2018-07-08T20:03:27.924Z,77.78
2018-07-08T20:05:56.711Z,77.76
2018-07-08T20:08:26.546Z,78.05
2018-07-08T20:10:55.780Z,77.79
2018-07-08T20:13:24.647Z,78.37
2018-07-08T20:15:54.014Z,77.55
2018-07-08T20:18:22.827Z,77.91
2018-07-08T20:20:51.619Z,77.79
2018-07-08T20:23:20.970Z,77.28
2018-07-08T20:25:49.818Z,77.45
2018-07-08T20:28:18.694Z,77.31
2018-07-08T20:30:47.716Z,77.73
2018-07-08T20:33:16.507Z,76.76
2018-07-08T20:35:45.365Z,76.87
2018-07-08T20:38:14.359Z,77.25
2018-07-08T20:40:43.349Z,77.51
2018-07-08T20:43:13.757Z,76.19
2018-07-08T20:45:42.581Z,77.53
2018-07-08T20:48:11.429Z,77.12
2018-07-08T20:50:40.398Z,76.72
2018-07-08T20:53:09.521Z,77.77
2018-07-08T20:55:38.335Z,77.34
2018-07-08T20:58:07.140Z,77.85
2018-07-08T21:00:35.985Z,77.42
2018-07-08T21:03:05.301Z,77.72
2018-07-08T21:05:34.686Z,77.57
2018-07-08T21:08:03.503Z,77.91
2018-07-08T21:10:32.314Z,78.50
2018-07-08T21:13:01.152Z,78.07
2018-07-08T21:15:30.562Z,78.10
2018-07-08T21:17:59.359Z,77.94
2018-07-08T21:20:28.138Z,78.51
2018-07-08T21:22:57.043Z,78.38
2018-07-08T21:25:26.514Z,77.95
2018-07-08T21:27:56.078Z,78.06
2018-07-08T21:30:24.928Z,79.22
2018-07-08T21:32:53.737Z,79.48
2018-07-08T21:35:22.584Z,77.61
2018-07-08T21:37:51.391Z,78.38
2018-07-08T21:40:20.323Z,78.11
2018-07-08T21:42:49.184Z,77.51
2018-07-08T21:45:17.959Z,77.27
2018-07-08T21:47:46.848Z,76.13
2018-07-08T21:50:15.651Z,76.70
2018-07-08T21:52:44.681Z,76.87
2018-07-08T21:55:13.480Z,76.75
2018-07-08T21:57:42.809Z,76.56
2018-07-08T22:00:11.918Z,75.81
2018-07-08T22:02:40.758Z,75.08
2018-07-08T22:05:09.806Z,74.40
2018-07-08T22:07:43.743Z,75.76
2018-07-08T22:10:12.537Z,74.92
2018-07-08T22:12:41.358Z,74.55
2018-07-08T22:15:10.213Z,75.49
2018-07-08T22:17:39.073Z,74.14
2018-07-08T22:20:07.888Z,74.62
2018-07-08T22:22:36.688Z,74.36
2018-07-08T22:25:05.549Z,74.81
2018-07-08T22:27:34.379Z,73.77
2018-07-08T22:30:04.580Z,73.59
2018-07-08T22:32:34.008Z,73.32
2018-07-08T22:35:02.808Z,72.81
2018-07-08T22:37:31.587Z,73.66
2018-07-08T22:40:00.823Z,73.67
2018-07-08T22:42:29.689Z,73.87
2018-07-08T22:44:58.552Z,73.46
2018-07-08T22:47:27.772Z,74.11
2018-07-08T22:49:56.570Z,73.14
2018-07-08T22:52:25.805Z,73.77
2018-07-08T22:54:55.153Z,74.31
2018-07-08T22:57:23.919Z,73.72
2018-07-08T23:00:05.037Z,73.90
2018-07-08T23:02:45.665Z,73.52
2018-07-08T23:05:15.419Z,74.51
2018-07-08T23:07:44.220Z,74.01
2018-07-08T23:10:13.068Z,74.61
2018-07-08T23:12:41.826Z,75.66
2018-07-08T23:15:10.617Z,74.41
2018-07-08T23:17:43.541Z,75.97
2018-07-08T23:20:12.304Z,74.94
2018-07-08T23:22:52.255Z,75.44
2018-07-08T23:25:21.078Z,75.52
2018-07-08T23:27:49.891Z,77.05
2018-07-08T23:30:18.688Z,76.08
2018-07-08T23:32:48.034Z,76.27
2018-07-08T23:35:16.994Z,77.12
2018-07-08T23:37:45.842Z,76.60
2018-07-08T23:40:14.646Z,75.85
2018-07-08T23:42:43.486Z,75.68
2018-07-08T23:45:17.626Z,76.02
2018-07-08T23:47:46.411Z,75.12
2018-07-08T23:50:15.168Z,75.23
2018-07-08T23:52:44.021Z,75.97
2018-07-08T23:55:12.812Z,75.59
2018-07-08T23:57:41.650Z,75.59
